createdAt,value
2022-08-12T00:09:09.077Z,17.1
2022-08-12T00:19:11.136Z,17
2022-08-12T00:29:13.385Z,16.9
2022-08-12T00:39:15.797Z,16.8
2022-08-12T00:49:18.018Z,16.7
2022-08-12T00:59:19.793Z,16.6
2022-08-12T01:19:24.307Z,16.5
2022-08-12T01:39:28.498Z,16.2
2022-08-12T01:49:30.211Z,16.1
2022-08-12T01:59:32.277Z,16.1
2022-08-12T02:09:34.650Z,16
2022-08-12T02:19:36.715Z,15.9
2022-08-12T02:39:40.205Z,15.4
2022-08-12T02:49:42.538Z,15.2
2022-08-12T03:09:46.417Z,14.9
2022-08-12T03:20:09.010Z,14.8
2022-08-12T03:39:53.875Z,14.6
2022-08-12T03:49:56.413Z,14.5
2022-08-12T03:59:58.928Z,14.4
2022-08-12T04:10:00.622Z,14.3
2022-08-12T04:20:02.906Z,14.3
2022-08-12T04:30:16.057Z,14.4
2022-08-12T04:40:07.173Z,14.3
2022-08-12T04:50:33.736Z,14.3
2022-08-12T05:00:11.804Z,14.5
2022-08-12T05:20:15.418Z,17.8
2022-08-12T05:30:17.581Z,19.9
2022-08-12T05:40:19.398Z,20.8
2022-08-12T05:50:21.313Z,21
2022-08-12T06:10:31.532Z,20.3
2022-08-12T06:20:30.073Z,19.8
2022-08-12T06:30:35.206Z,22.2
2022-08-12T06:40:31.645Z,22.4
2022-08-12T06:50:36.865Z,22.4
2022-08-12T07:20:52.061Z,24.6
2022-08-12T07:30:41.149Z,26.4
2022-08-12T08:00:47.625Z,27.5
2022-08-12T08:10:49.451Z,28.5
2022-08-12T08:30:54.284Z,29.3
2022-08-12T08:40:56.491Z,29.3
2022-08-12T09:01:00.862Z,29.4
2022-08-12T09:11:03.073Z,30.3
2022-08-12T09:21:06.342Z,31.6
2022-08-12T09:31:54.022Z,32.6
2022-08-12T09:42:10.170Z,31.8
2022-08-12T10:01:15.074Z,30.4
2022-08-12T10:11:18.307Z,30.6
2022-08-12T10:21:19.155Z,30.9
2022-08-12T10:31:21.307Z,30.9
2022-08-12T10:41:23.570Z,31.2
2022-08-12T11:01:50.710Z,30.2
2022-08-12T11:12:08.163Z,30.6
2022-08-12T11:21:51.175Z,31.6
2022-08-12T11:31:40.832Z,30.3
2022-08-12T11:41:35.999Z,31.3
2022-08-12T11:51:39.715Z,31.5
2022-08-12T12:02:00.618Z,30.4
2022-08-12T12:11:49.320Z,31.6
2022-08-12T12:21:47.667Z,32.1
2022-08-12T12:32:09.343Z,32
2022-08-12T12:42:42.213Z,31.8
2022-08-12T12:52:18.245Z,31.2
2022-08-12T13:01:53.549Z,31.6
2022-08-12T13:11:55.259Z,31.7
2022-08-12T13:21:57.620Z,31.4
2022-08-12T13:32:17.478Z,32
2022-08-12T13:42:01.854Z,31.6
2022-08-12T13:52:04.383Z,31.7
2022-08-12T14:02:06.273Z,31.8
2022-08-12T14:12:08.240Z,31.2
2022-08-12T14:22:10.516Z,31.2
2022-08-12T14:32:16.479Z,31.1
2022-08-12T14:42:14.387Z,30.9
2022-08-12T14:53:27.977Z,31.5
2022-08-12T15:02:19.116Z,30.6
2022-08-12T15:12:24.540Z,30.9
2022-08-12T15:22:36.219Z,31
2022-08-12T15:32:31.909Z,30.5
2022-08-12T15:42:27.331Z,30.4
2022-08-12T15:52:29.845Z,30.4
2022-08-12T16:02:32.068Z,30.4
2022-08-12T16:12:34.643Z,30.4
2022-08-12T16:22:37.048Z,30.2
2022-08-12T16:32:39.593Z,30
2022-08-12T16:42:42.136Z,29.8
2022-08-12T16:52:44.331Z,29.6
2022-08-12T17:02:50.601Z,29.6
2022-08-12T17:12:48.377Z,29.4
2022-08-12T17:22:50.420Z,29.3
2022-08-12T17:42:54.626Z,28.9
2022-08-12T17:53:00.512Z,28.9
2022-08-12T18:02:59.027Z,28.3
2022-08-12T18:13:00.938Z,28.1
2022-08-12T18:23:03.071Z,28
2022-08-12T18:33:05.872Z,27.1
2022-08-12T18:43:07.836Z,26.5
2022-08-12T18:53:10.366Z,26.1
2022-08-12T19:13:18.767Z,24.9
2022-08-12T19:33:18.718Z,23.5
2022-08-12T19:43:21.080Z,22.9
2022-08-12T19:53:23.643Z,22.5
2022-08-12T20:03:37.753Z,22.6
2022-08-12T20:13:37.340Z,22.6
2022-08-12T20:23:37.049Z,22.8
2022-08-12T20:33:32.512Z,22.5
2022-08-12T20:33:56.595Z,22.5
2022-08-12T20:43:42.048Z,21.9
2022-08-12T20:53:54.330Z,21.3
2022-08-12T21:13:46.530Z,20.3
2022-08-12T21:23:48.000Z,20
2022-08-12T21:33:58.991Z,19.6
2022-08-12T21:43:52.596Z,19.3
2022-08-12T21:54:06.598Z,19.1
2022-08-12T22:04:04.561Z,18.9
2022-08-12T22:24:04.301Z,19
2022-08-12T22:34:04.240Z,18.8
2022-08-12T22:44:06.502Z,18.6
2022-08-12T22:54:10.084Z,18.4
2022-08-12T23:04:11.457Z,18.1
2022-08-12T23:14:13.862Z,17.8
2022-08-12T23:24:16.760Z,17.5
2022-08-12T23:54:33.042Z,17
